createdAt,value
2023-02-07T00:00:52.443Z,78.20
2023-02-07T00:03:36.488Z,74.40
2023-02-07T00:06:08.759Z,74.20
2023-02-07T00:08:36.707Z,79.00
2023-02-07T00:11:08.428Z,82.50
2023-02-07T00:13:36.505Z,79.50
2023-02-07T00:16:06.018Z,72.70
2023-02-07T00:18:33.641Z,74.60
2023-02-07T00:21:06.186Z,67.60
2023-02-07T00:23:34.467Z,83.80
2023-02-07T00:26:01.927Z,77.60
2023-02-07T00:28:28.917Z,82.30
2023-02-07T00:31:04.791Z,75.10
2023-02-07T00:33:31.576Z,78.50
2023-02-07T00:35:59.986Z,87.30
2023-02-07T00:38:27.892Z,84.00
2023-02-07T00:40:54.895Z,77.10
2023-02-07T00:43:29.720Z,73.10
2023-02-07T00:46:03.274Z,80.80
2023-02-07T00:48:31.468Z,75.40
2023-02-07T00:50:59.004Z,76.90
2023-02-07T00:53:28.615Z,75.10
2023-02-07T00:55:55.530Z,82.00
2023-02-07T00:58:22.819Z,80.40
2023-02-07T01:00:50.225Z,81.30
2023-02-07T01:03:16.884Z,78.90
2023-02-07T01:05:43.822Z,89.20
2023-02-07T01:08:11.309Z,80.10
2023-02-07T01:10:42.710Z,71.70
2023-02-07T01:13:10.966Z,80.40
2023-02-07T01:15:39.834Z,81.20
2023-02-07T01:18:08.125Z,77.50
2023-02-07T01:20:35.853Z,74.70
2023-02-07T01:23:05.255Z,78.00
2023-02-07T01:25:32.518Z,74.90
2023-02-07T01:27:59.431Z,79.60
2023-02-07T01:30:26.504Z,72.90
2023-02-07T01:32:53.201Z,89.00
2023-02-07T01:35:20.241Z,76.60
2023-02-07T01:37:47.041Z,73.60
2023-02-07T01:40:13.686Z,79.80
2023-02-07T01:42:40.756Z,74.20
2023-02-07T01:45:27.030Z,75.40
2023-02-07T01:47:56.547Z,71.30
2023-02-07T01:50:25.390Z,72.70
2023-02-07T01:52:53.941Z,79.30
2023-02-07T01:55:28.724Z,82.00
2023-02-07T01:57:55.483Z,77.40
2023-02-07T02:00:22.882Z,72.90
2023-02-07T02:02:49.557Z,77.00
2023-02-07T02:05:18.308Z,78.30
2023-02-07T02:07:47.796Z,78.00
2023-02-07T02:10:20.003Z,67.00
2023-02-07T02:12:52.802Z,64.90
2023-02-07T02:15:34.454Z,69.10
2023-02-07T02:18:19.466Z,69.10
2023-02-07T02:20:49.893Z,70.50
2023-02-07T02:23:50.433Z,74.10
2023-02-07T02:26:58.419Z,63.30
2023-02-07T02:29:51.594Z,63.80
2023-02-07T02:32:59.792Z,75.10
2023-02-07T02:35:47.848Z,65.60
2023-02-07T02:38:35.024Z,69.50
2023-02-07T02:41:27.382Z,65.30
2023-02-07T02:44:03.384Z,61.60
2023-02-07T02:46:35.333Z,63.00
2023-02-07T02:49:04.516Z,67.40
2023-02-07T02:51:32.213Z,66.50
2023-02-07T02:54:00.704Z,67.20
2023-02-07T02:56:59.791Z,70.90
2023-02-07T02:59:49.412Z,69.90
2023-02-07T03:02:32.207Z,75.30
2023-02-07T03:05:10.132Z,75.30
2023-02-07T03:07:59.133Z,72.60
2023-02-07T03:10:29.247Z,69.20
2023-02-07T03:13:31.545Z,68.20
2023-02-07T03:16:10.356Z,67.10
2023-02-07T03:19:09.139Z,68.10
2023-02-07T03:21:44.829Z,67.20
2023-02-07T03:24:21.646Z,66.50
2023-02-07T03:26:52.440Z,71.10
2023-02-07T03:29:21.533Z,58.40
2023-02-07T03:31:52.801Z,69.60
2023-02-07T03:34:27.198Z,68.40
2023-02-07T03:37:16.264Z,69.90
2023-02-07T03:39:43.126Z,70.10
2023-02-07T03:42:21.678Z,70.60
2023-02-07T03:44:51.169Z,61.40
2023-02-07T03:47:18.991Z,61.70
2023-02-07T03:49:45.799Z,66.70
2023-02-07T03:52:12.618Z,63.90
2023-02-07T03:54:39.333Z,57.40
2023-02-07T03:57:06.041Z,58.00
2023-02-07T03:59:33.040Z,62.30
2023-02-07T04:02:01.611Z,62.10
2023-02-07T04:04:29.404Z,61.90
2023-02-07T04:06:56.223Z,55.60
2023-02-07T04:09:22.941Z,51.90
2023-02-07T04:11:50.835Z,57.40
2023-02-07T04:14:21.846Z,58.30
2023-02-07T04:16:49.595Z,57.60
2023-02-07T04:19:16.789Z,60.50
2023-02-07T04:21:43.429Z,56.40
2023-02-07T04:24:11.551Z,55.30
2023-02-07T04:26:38.910Z,52.60
2023-02-07T04:29:07.648Z,54.30
2023-02-07T04:31:34.231Z,52.60
2023-02-07T04:34:00.990Z,54.50
2023-02-07T04:36:29.378Z,53.70
2023-02-07T04:38:56.201Z,53.30
2023-02-07T04:41:24.241Z,60.80
2023-02-07T04:43:51.073Z,56.60
2023-02-07T04:46:17.624Z,52.90
2023-02-07T04:48:44.486Z,53.70
2023-02-07T04:51:11.499Z,55.60
2023-02-07T04:53:38.116Z,47.90
2023-02-07T04:56:05.291Z,41.90
2023-02-07T04:58:33.093Z,43.00
2023-02-07T05:00:59.923Z,43.70
2023-02-07T05:03:26.896Z,43.50
2023-02-07T05:05:54.844Z,43.70
2023-02-07T05:08:22.008Z,42.00
2023-02-07T05:10:53.060Z,35.60
2023-02-07T05:13:20.330Z,39.50
2023-02-07T05:15:46.984Z,36.20
2023-02-07T05:18:13.917Z,31.90
2023-02-07T05:20:40.745Z,34.30
2023-02-07T05:23:07.498Z,39.00
2023-02-07T05:25:34.210Z,31.80
2023-02-07T05:28:01.081Z,30.60
2023-02-07T05:30:28.181Z,33.00
2023-02-07T05:33:03.887Z,31.90
2023-02-07T05:35:39.553Z,35.90
2023-02-07T05:38:09.921Z,30.10
2023-02-07T05:40:38.700Z,30.00
2023-02-07T05:43:05.778Z,29.90
2023-02-07T05:45:33.136Z,28.10
2023-02-07T05:48:00.197Z,31.10
2023-02-07T05:50:27.001Z,30.90
2023-02-07T05:53:05.124Z,31.70
2023-02-07T05:55:31.758Z,31.50
2023-02-07T05:57:58.438Z,31.90
2023-02-07T06:00:25.603Z,38.40
2023-02-07T06:02:52.374Z,32.30
2023-02-07T06:05:19.847Z,31.80
2023-02-07T06:07:46.836Z,32.80
2023-02-07T06:10:14.407Z,34.30
2023-02-07T06:12:41.264Z,33.30
2023-02-07T06:15:08.887Z,30.10
2023-02-07T06:17:35.551Z,31.10
2023-02-07T06:20:03.017Z,30.00
2023-02-07T06:22:29.840Z,29.20
2023-02-07T06:24:56.399Z,30.90
2023-02-07T06:27:23.049Z,30.60
2023-02-07T06:29:49.953Z,32.20
2023-02-07T06:32:16.589Z,33.10
2023-02-07T06:34:43.179Z,30.70
2023-02-07T06:37:09.952Z,30.60
2023-02-07T06:39:36.836Z,30.30
2023-02-07T06:42:04.053Z,28.70
2023-02-07T06:44:31.191Z,28.40
2023-02-07T06:46:57.842Z,32.50
2023-02-07T06:49:24.342Z,31.30
2023-02-07T06:51:51.289Z,27.60
2023-02-07T06:54:18.108Z,30.50
2023-02-07T06:56:44.700Z,36.00
2023-02-07T06:59:11.476Z,30.30
2023-02-07T07:01:38.016Z,30.90
2023-02-07T07:04:04.792Z,31.70
2023-02-07T07:06:31.974Z,30.60
2023-02-07T07:08:58.600Z,28.40
2023-02-07T07:11:25.384Z,30.60
2023-02-07T07:13:52.172Z,30.50
2023-02-07T07:16:18.847Z,28.80
2023-02-07T07:18:45.667Z,33.30
2023-02-07T07:21:12.649Z,32.60
2023-02-07T07:23:39.400Z,26.10
2023-02-07T07:26:06.039Z,27.90
2023-02-07T07:28:33.037Z,32.60
2023-02-07T07:31:07.590Z,30.20
2023-02-07T07:33:35.435Z,29.70
2023-02-07T07:36:03.288Z,27.90
2023-02-07T07:38:30.859Z,31.40
2023-02-07T07:40:58.378Z,29.80
2023-02-07T07:43:25.090Z,27.80
2023-02-07T07:45:56.448Z,30.10
2023-02-07T07:48:24.576Z,32.70
2023-02-07T07:50:51.957Z,30.90
2023-02-07T07:53:19.630Z,28.20
2023-02-07T07:55:51.542Z,26.80
2023-02-07T07:58:19.040Z,30.60
2023-02-07T08:00:47.103Z,29.60
2023-02-07T08:03:15.546Z,30.20
2023-02-07T08:05:43.778Z,30.00
2023-02-07T08:08:11.161Z,27.90
2023-02-07T08:10:39.298Z,30.70
2023-02-07T08:13:06.290Z,26.30
2023-02-07T08:15:33.442Z,32.30
2023-02-07T08:18:00.688Z,33.80
2023-02-07T08:20:27.836Z,29.00
2023-02-07T08:22:54.573Z,29.80
2023-02-07T08:25:21.512Z,25.40
2023-02-07T08:27:48.120Z,27.00
2023-02-07T08:30:16.432Z,30.50
2023-02-07T08:32:43.254Z,29.00
2023-02-07T08:35:11.053Z,32.20
2023-02-07T08:37:38.179Z,32.80
2023-02-07T08:40:06.195Z,31.60
2023-02-07T08:42:32.829Z,26.30
2023-02-07T08:44:59.701Z,29.50
2023-02-07T08:47:26.664Z,28.70
2023-02-07T08:49:53.321Z,27.20
2023-02-07T08:52:20.093Z,29.10
2023-02-07T08:54:46.991Z,29.00
2023-02-07T08:57:13.625Z,27.20
2023-02-07T08:59:40.662Z,32.50
2023-02-07T09:02:07.761Z,29.30
2023-02-07T09:04:35.947Z,29.20
2023-02-07T09:07:03.025Z,29.50
2023-02-07T09:09:32.580Z,27.00
2023-02-07T09:11:59.354Z,27.40
2023-02-07T09:14:26.084Z,27.00
2023-02-07T09:16:53.060Z,26.70
2023-02-07T09:19:19.821Z,28.10
2023-02-07T09:21:46.538Z,26.40
2023-02-07T09:24:13.472Z,25.40
2023-02-07T09:26:40.277Z,26.60
2023-02-07T09:29:07.508Z,27.40
2023-02-07T09:31:34.514Z,27.40
2023-02-07T09:34:02.342Z,24.40
2023-02-07T09:36:30.211Z,26.10
2023-02-07T09:38:57.927Z,26.40
2023-02-07T09:41:56.707Z,27.50
2023-02-07T09:44:44.517Z,27.50
2023-02-07T09:47:16.708Z,28.60
2023-02-07T09:49:53.028Z,24.20
2023-02-07T09:52:42.144Z,28.80
2023-02-07T09:55:25.348Z,25.80
2023-02-07T09:58:01.165Z,30.40
2023-02-07T10:00:31.150Z,25.80
2023-02-07T10:03:03.541Z,22.90
2023-02-07T10:05:43.097Z,25.70
2023-02-07T10:08:15.354Z,26.70
2023-02-07T10:10:45.913Z,27.90
2023-02-07T10:13:49.851Z,21.80
2023-02-07T10:16:41.058Z,26.10
2023-02-07T10:19:25.574Z,26.50
2023-02-07T10:22:20.261Z,25.50
2023-02-07T10:24:56.137Z,24.30
2023-02-07T10:27:30.662Z,26.10
2023-02-07T10:30:08.627Z,27.30
2023-02-07T10:32:37.700Z,25.00
2023-02-07T10:35:18.829Z,25.90
2023-02-07T10:37:50.018Z,29.70
2023-02-07T10:40:34.130Z,30.60
2023-02-07T10:43:10.763Z,29.60
2023-02-07T10:45:41.644Z,25.40
2023-02-07T10:48:14.358Z,25.80
2023-02-07T10:50:41.201Z,24.30
2023-02-07T10:53:08.138Z,27.10
2023-02-07T10:55:45.882Z,21.40
2023-02-07T10:58:23.300Z,26.00
2023-02-07T11:00:53.557Z,23.10
2023-02-07T11:03:25.158Z,21.90
2023-02-07T11:06:02.293Z,21.30
2023-02-07T11:08:32.140Z,21.40
2023-02-07T11:11:15.989Z,22.30
2023-02-07T11:13:49.412Z,19.50
2023-02-07T11:16:19.462Z,23.30
2023-02-07T11:18:57.373Z,18.50
2023-02-07T11:21:33.582Z,22.80
2023-02-07T11:24:05.095Z,22.70
2023-02-07T11:26:33.979Z,23.80
2023-02-07T11:29:13.556Z,22.20
2023-02-07T11:31:42.647Z,21.00
2023-02-07T11:34:26.290Z,20.90
2023-02-07T11:36:53.138Z,23.30
2023-02-07T11:39:21.971Z,22.40
2023-02-07T11:42:02.170Z,21.20
2023-02-07T11:44:30.878Z,21.60
2023-02-07T11:47:04.297Z,20.40
2023-02-07T11:49:42.288Z,23.50
2023-02-07T11:52:10.106Z,21.20
2023-02-07T11:54:42.337Z,21.10
2023-02-07T11:57:19.871Z,25.40
2023-02-07T12:00:10.143Z,24.60
2023-02-07T12:03:03.400Z,22.00
2023-02-07T12:05:35.337Z,22.60
2023-02-07T12:08:09.365Z,28.20
2023-02-07T12:10:40.225Z,29.10
2023-02-07T12:13:26.190Z,19.90
2023-02-07T12:16:00.966Z,20.40
2023-02-07T12:18:42.708Z,22.90
2023-02-07T12:21:20.559Z,24.70
2023-02-07T12:24:13.666Z,20.80
2023-02-07T12:26:44.274Z,21.20
2023-02-07T12:29:23.125Z,18.60
2023-02-07T12:31:55.847Z,18.30
2023-02-07T12:34:33.881Z,19.20
2023-02-07T12:37:29.994Z,23.30
2023-02-07T12:40:30.712Z,21.00
2023-02-07T12:43:10.566Z,17.10
2023-02-07T12:46:00.101Z,20.20
2023-02-07T12:49:05.652Z,19.60
2023-02-07T12:51:49.901Z,19.30
2023-02-07T12:54:27.719Z,21.00
2023-02-07T12:57:00.337Z,20.50
2023-02-07T12:59:49.917Z,21.10
2023-02-07T13:02:35.774Z,22.80
2023-02-07T13:05:05.704Z,20.90
2023-02-07T13:07:58.199Z,21.80
2023-02-07T13:10:40.676Z,20.30
2023-02-07T13:13:37.922Z,22.30
2023-02-07T13:16:34.035Z,22.90
2023-02-07T13:19:25.663Z,21.80
2023-02-07T13:22:06.452Z,25.60
2023-02-07T13:24:37.170Z,21.00
2023-02-07T13:27:12.060Z,21.40
2023-02-07T13:29:40.291Z,22.00
2023-02-07T13:32:14.801Z,19.80
2023-02-07T13:34:53.236Z,20.50
2023-02-07T13:37:28.309Z,22.50
2023-02-07T13:39:58.067Z,21.70
2023-02-07T13:42:54.394Z,22.50
2023-02-07T13:45:46.588Z,24.80
2023-02-07T13:48:38.699Z,24.50
2023-02-07T13:51:29.706Z,23.20
2023-02-07T13:54:12.926Z,21.50
2023-02-07T13:57:14.752Z,22.10
2023-02-07T13:59:42.298Z,23.90
2023-02-07T14:02:20.503Z,21.80
2023-02-07T14:05:06.009Z,21.30
2023-02-07T14:07:35.389Z,21.70
2023-02-07T14:10:03.989Z,21.90
2023-02-07T14:12:33.506Z,23.30
2023-02-07T14:15:30.013Z,23.10
2023-02-07T14:17:56.657Z,23.80
2023-02-07T14:20:49.232Z,25.50
2023-02-07T14:23:19.156Z,26.30
2023-02-07T14:25:46.969Z,22.00
2023-02-07T14:28:19.619Z,28.30
2023-02-07T14:30:52.921Z,23.00
2023-02-07T14:33:21.970Z,23.00
2023-02-07T14:36:18.063Z,27.80
2023-02-07T14:39:02.937Z,25.70
2023-02-07T14:41:37.354Z,24.10
2023-02-07T14:44:09.995Z,26.10
2023-02-07T14:46:46.350Z,26.20
2023-02-07T14:49:33.035Z,24.20
2023-02-07T14:52:04.181Z,23.50
2023-02-07T14:54:40.481Z,23.40
2023-02-07T14:57:45.858Z,27.40
2023-02-07T15:00:13.043Z,27.10
2023-02-07T15:02:47.499Z,25.70
2023-02-07T15:05:17.458Z,27.80
2023-02-07T15:07:46.644Z,111.50
2023-02-07T15:10:47.512Z,72.40
2023-02-07T15:13:30.804Z,38.80
2023-02-07T15:16:04.301Z,40.50
2023-02-07T15:18:38.545Z,35.40
2023-02-07T15:21:06.830Z,38.40
2023-02-07T15:23:41.314Z,35.40
2023-02-07T15:26:08.508Z,34.40
2023-02-07T15:28:35.585Z,40.40
2023-02-07T15:31:09.387Z,51.40
2023-02-07T15:33:49.008Z,71.20
2023-02-07T15:36:30.337Z,75.50
2023-02-07T15:38:58.962Z,63.20
2023-02-07T15:41:26.981Z,58.20
2023-02-07T15:44:18.057Z,61.40
2023-02-07T15:46:54.987Z,51.20
2023-02-07T15:49:26.392Z,36.50
2023-02-07T15:51:56.935Z,34.20
2023-02-07T15:54:26.381Z,29.60
2023-02-07T15:56:59.493Z,32.10
2023-02-07T15:59:31.260Z,28.90
2023-02-07T16:02:00.675Z,33.30
2023-02-07T16:04:30.812Z,27.40
2023-02-07T16:07:03.966Z,34.70
2023-02-07T16:09:44.616Z,29.90
2023-02-07T16:12:29.384Z,32.30
2023-02-07T16:14:56.913Z,25.10
2023-02-07T16:17:36.005Z,32.70
2023-02-07T16:20:03.556Z,30.90
2023-02-07T16:22:31.095Z,36.60
2023-02-07T16:25:01.732Z,29.90
2023-02-07T16:27:32.186Z,31.10
2023-02-07T16:29:59.863Z,37.80
2023-02-07T16:32:33.984Z,30.90
2023-02-07T16:35:00.985Z,41.80
2023-02-07T16:37:28.365Z,38.30
2023-02-07T16:39:55.223Z,32.30
2023-02-07T16:42:22.317Z,33.90
2023-02-07T16:44:49.110Z,33.70
2023-02-07T16:47:17.202Z,32.60
2023-02-07T16:49:45.299Z,37.50
2023-02-07T16:52:12.124Z,42.20
2023-02-07T16:54:39.103Z,39.20
2023-02-07T16:57:06.292Z,37.40
2023-02-07T16:59:33.174Z,32.70
2023-02-07T17:02:00.196Z,34.10
2023-02-07T17:04:27.261Z,31.00
2023-02-07T17:06:53.858Z,39.20
2023-02-07T17:09:24.276Z,37.00
2023-02-07T17:11:54.783Z,36.00
2023-02-07T17:14:21.974Z,36.50
2023-02-07T17:16:50.986Z,39.40
2023-02-07T17:19:23.360Z,31.40
2023-02-07T17:21:51.680Z,29.30
2023-02-07T17:24:19.028Z,31.60
2023-02-07T17:26:48.534Z,28.90
2023-02-07T17:29:17.078Z,25.20
2023-02-07T17:31:44.824Z,23.60
2023-02-07T17:34:11.941Z,29.80
2023-02-07T17:36:43.081Z,30.00
2023-02-07T17:39:12.786Z,29.50
2023-02-07T17:41:39.931Z,27.50
2023-02-07T17:44:06.998Z,28.00
2023-02-07T17:46:34.023Z,31.50
2023-02-07T17:49:01.730Z,23.50
2023-02-07T17:51:29.737Z,31.10
2023-02-07T17:53:57.349Z,23.90
2023-02-07T17:56:27.790Z,29.00
2023-02-07T17:58:58.176Z,24.20
2023-02-07T18:01:25.218Z,26.10
2023-02-07T18:03:54.206Z,24.80
2023-02-07T18:06:25.129Z,28.80
2023-02-07T18:08:52.526Z,34.10
2023-02-07T18:11:19.285Z,30.90
2023-02-07T18:13:47.339Z,30.90
2023-02-07T18:16:19.141Z,31.30
2023-02-07T18:18:45.966Z,27.30
2023-02-07T18:21:13.763Z,29.90
2023-02-07T18:23:42.451Z,31.90
2023-02-07T18:26:11.177Z,33.70
2023-02-07T18:28:38.578Z,31.20
2023-02-07T18:31:17.350Z,30.80
2023-02-07T18:33:44.392Z,31.20
2023-02-07T18:36:11.962Z,31.60
2023-02-07T18:38:39.102Z,38.10
2023-02-07T18:41:13.671Z,41.60
2023-02-07T18:43:40.985Z,41.70
2023-02-07T18:46:27.452Z,33.30
2023-02-07T18:48:55.780Z,34.00
2023-02-07T18:51:23.638Z,33.00
2023-02-07T18:53:51.667Z,36.40
2023-02-07T18:56:23.964Z,35.80
2023-02-07T18:58:56.212Z,30.60
2023-02-07T19:01:31.592Z,29.00
2023-02-07T19:04:00.993Z,32.50
2023-02-07T19:06:31.133Z,33.80
2023-02-07T19:08:58.491Z,29.70
2023-02-07T19:11:26.073Z,28.50
2023-02-07T19:40:58.824Z,23.70
2023-02-07T19:43:25.841Z,24.90
2023-02-07T19:45:53.417Z,26.50
2023-02-07T19:48:21.335Z,28.50
2023-02-07T19:51:00.038Z,25.10
2023-02-07T19:53:28.173Z,23.70
2023-02-07T19:56:01.830Z,29.50
2023-02-07T19:58:30.836Z,25.00
2023-02-07T20:00:58.442Z,25.60
2023-02-07T20:03:26.210Z,20.70
2023-02-07T20:05:55.939Z,24.10
2023-02-07T20:08:22.775Z,24.80
2023-02-07T20:10:49.454Z,22.10
2023-02-07T20:13:16.534Z,24.70
2023-02-07T20:15:48.389Z,26.10
2023-02-07T20:18:15.032Z,26.20
2023-02-07T20:20:45.467Z,20.70
2023-02-07T20:23:13.881Z,20.00
2023-02-07T20:25:40.812Z,24.60
2023-02-07T20:28:08.663Z,23.20
2023-02-07T20:30:36.451Z,26.50
2023-02-07T20:33:03.549Z,23.90
2023-02-07T20:35:30.392Z,25.80
2023-02-07T20:37:57.251Z,23.70
2023-02-07T20:40:26.485Z,21.40
2023-02-07T20:42:56.292Z,27.40
2023-02-07T20:45:22.956Z,25.80
2023-02-07T20:47:49.531Z,25.40
2023-02-07T20:50:16.335Z,26.20
2023-02-07T20:52:43.202Z,24.40
2023-02-07T20:55:10.045Z,27.10
2023-02-07T20:57:37.136Z,27.50
2023-02-07T21:00:04.848Z,24.90
2023-02-07T21:02:31.421Z,26.70
2023-02-07T21:05:00.723Z,23.90
2023-02-07T21:07:27.451Z,24.60
2023-02-07T21:09:54.062Z,24.70
2023-02-07T21:12:20.800Z,25.20
2023-02-07T21:14:47.707Z,23.50
2023-02-07T21:17:14.359Z,21.90
2023-02-07T21:19:41.242Z,21.60
2023-02-07T21:22:08.108Z,25.20
2023-02-07T21:24:34.946Z,25.60
2023-02-07T21:27:02.831Z,27.30
2023-02-07T21:29:29.602Z,27.50
2023-02-07T21:31:56.514Z,23.60
2023-02-07T21:34:24.864Z,24.40
2023-02-07T21:36:51.972Z,25.90
2023-02-07T21:39:19.468Z,23.80
2023-02-07T21:41:47.271Z,23.00
2023-02-07T21:44:14.728Z,23.20
2023-02-07T21:46:45.465Z,27.00
2023-02-07T21:49:15.605Z,23.20
2023-02-07T21:51:44.921Z,22.20
2023-02-07T21:54:11.679Z,26.30
2023-02-07T21:56:40.802Z,22.20
2023-02-07T21:59:12.165Z,22.50
2023-02-07T22:01:38.982Z,24.00
2023-02-07T22:04:09.877Z,26.40
2023-02-07T22:06:41.408Z,24.30
2023-02-07T22:09:10.269Z,26.40
2023-02-07T22:11:37.405Z,20.30
2023-02-07T22:14:05.015Z,24.00
2023-02-07T22:16:33.670Z,24.00
2023-02-07T22:19:05.102Z,19.30
2023-02-07T22:21:34.959Z,24.60
2023-02-07T22:24:03.404Z,22.10
2023-02-07T22:26:32.040Z,21.20
2023-02-07T22:28:59.064Z,24.50
2023-02-07T22:31:28.675Z,17.60
2023-02-07T22:34:00.769Z,20.40
2023-02-07T22:36:30.560Z,26.80
2023-02-07T22:38:59.273Z,23.80
2023-02-07T22:41:27.265Z,20.40
2023-02-07T22:43:54.688Z,24.40
2023-02-07T22:46:24.179Z,22.40
2023-02-07T22:48:51.929Z,24.30
2023-02-07T22:51:24.763Z,24.50
2023-02-07T22:53:57.515Z,23.20
2023-02-07T22:56:25.587Z,19.80
2023-02-07T22:58:53.634Z,28.10
2023-02-07T23:01:23.675Z,25.60
2023-02-07T23:03:52.058Z,29.40
2023-02-07T23:06:20.284Z,26.50
2023-02-07T23:08:47.671Z,25.00
2023-02-07T23:11:17.222Z,25.90
2023-02-07T23:13:44.319Z,22.90
2023-02-07T23:16:13.530Z,27.10
2023-02-07T23:18:40.827Z,26.80
2023-02-07T23:21:13.039Z,26.10
2023-02-07T23:23:40.125Z,31.70
2023-02-07T23:26:12.571Z,29.80
2023-02-07T23:28:40.296Z,30.40
2023-02-07T23:31:09.506Z,30.80
2023-02-07T23:33:37.071Z,36.50
2023-02-07T23:36:05.353Z,36.50
2023-02-07T23:38:33.011Z,36.70
2023-02-07T23:41:00.269Z,33.50
2023-02-07T23:43:27.015Z,29.40
2023-02-07T23:45:54.326Z,32.10
2023-02-07T23:48:21.137Z,32.00
2023-02-07T23:50:56.966Z,26.80
2023-02-07T23:53:24.825Z,26.70
2023-02-07T23:55:54.528Z,29.00
2023-02-07T23:58:22.716Z,31.70
